Main page
METAR-TAF:

METAR-TAF

Airports :

Nîmes–Alès–Camargue–Cévennes Airport

Nîmes, France

latitude: 43-45N, longitude: 004-25E, elevation: 94 m

Current weather observation

The report was made 27 minutes ago, at 05:30 UTC
Wind 1 kt from the Northeast
Temperature 23°C
Humidity 100%
Pressure 1011 hPa
Visibility 10 km or more
Broken clouds at a height of 1300 ft

METAR: LFTW 130530Z AUTO 05001KT 9999 BKN013 23/23 Q1011 BECMG NSC

Time: 07:57 (05:57 UTC)

Forecast

The report was made 2 hours and 17 minutes ago, at 03:40 UTC
Forecast valid from 13 at 03 UTC to 14 at 03 UTC
Wind 5 kt from variable directions
Visibility 10 km or more
no clouds below 1500 m and no cumulonimbus
Temporary
from 13 at 03 UTC to 13 at 06 UTC
Broken clouds at a height of 1000 ft
Becoming
from 13 at 10 UTC to 13 at 12 UTC
Wind 12 kt from the South/Southwest
Becoming
from 14 at 00 UTC to 14 at 02 UTC
Broken clouds at a height of 1400 ft

TAF: LFTW 130340Z 1303/1403 VRB05KT CAVOK TEMPO 1303/1306 BKN010 BECMG 1310/1312 20012KT BECMG 1400/1402 BKN014

Weather observations and forecasts of more than 4000 airports (METAR and TAF reports).

The available stations are represented by yellow and red dots on the map.

Hover mouse over dot to see the name of the station.

Then click to see weather observations and forecasts.

To change the map : click on the green buttons with a black cross to zoom in, on the green button with a dash to zoom out, or on the green arrows for adjacent maps.


METAR-TAF: